Time;durP1;ratioP1;P1;durP2;ratioP2;P2;SDS_P1;SDS_P2;PMS_P1;PMS_P2;Temp;Humidity;BMP_temperature;BMP_pressure;BME280_temperature;BME280_humidity;BME280_pressure;Samples;Min_cycle;Max_cycle;Signal;HPM_P1;HPM_P2
2022/07/17 00:01:37;;;;;;;0.00;0.00;;;19.50;74.90;;;;;;4972866;28;20058;-66
2022/07/17 00:04:03;;;;;;;0.10;0.10;;;19.20;75.40;;;;;;4983904;28;20569;-66
2022/07/17 00:06:29;;;;;;;0.13;0.13;;;19.00;76.00;;;;;;4992579;28;20027;-67
2022/07/17 00:08:55;;;;;;;0.00;0.00;;;18.90;77.40;;;;;;4992209;28;20045;-66
2022/07/17 00:11:20;;;;;;;0.38;0.38;;;19.00;76.40;;;;;;4992216;28;20033;-66
2022/07/17 00:13:46;;;;;;;0.00;0.00;;;19.30;76.50;;;;;;4991883;28;20041;-66
2022/07/17 00:16:12;;;;;;;0.55;0.55;;;19.50;76.00;;;;;;4992137;28;20487;-66
2022/07/17 00:18:37;;;;;;;0.00;0.00;;;19.60;76.30;;;;;;4991843;28;20494;-66
2022/07/17 00:21:03;;;;;;;0.00;0.00;;;19.50;74.80;;;;;;4991982;28;20069;-66
2022/07/17 00:23:29;;;;;;;0.00;0.00;;;19.50;75.20;;;;;;4991906;28;20034;-64
2022/07/17 00:25:55;;;;;;;0.00;0.00;;;19.30;75.50;;;;;;4992281;28;20030;-64
2022/07/17 00:28:20;;;;;;;0.90;0.47;;;19.10;76.60;;;;;;4991969;28;20056;-64
2022/07/17 00:30:46;;;;;;;0.30;0.30;;;18.90;77.70;;;;;;4992145;28;20033;-64
2022/07/17 00:33:12;;;;;;;0.45;0.40;;;18.70;77.90;;;;;;4991901;28;20026;-64
2022/07/17 00:35:37;;;;;;;0.15;0.15;;;18.60;77.60;;;;;;4974465;28;20041;-64
2022/07/17 00:38:03;;;;;;;1.40;0.80;;;18.50;78.10;;;;;;4992134;28;20062;-64
2022/07/17 00:40:29;;;;;;;4.88;0.50;;;18.30;79.20;;;;;;4991582;28;20046;-64
2022/07/17 00:42:55;;;;;;;1.80;0.43;;;18.30;78.80;;;;;;4991618;28;20034;-64
2022/07/17 00:45:24;;;;;;;0.17;0.17;;;18.30;78.70;;;;;;4991705;28;20100;-64
2022/07/17 00:47:53;;;;;;;1.00;0.70;;;18.30;78.90;;;;;;4974926;28;20053;-64
2022/07/17 00:50:21;;;;;;;0.22;0.22;;;18.20;79.60;;;;;;4991285;28;20034;-65
2022/07/17 00:52:47;;;;;;;0.00;0.00;;;18.20;79.20;;;;;;4995722;28;20475;-64
2022/07/17 00:55:14;;;;;;;0.00;0.00;;;18.10;80.00;;;;;;4995894;28;20045;-64
2022/07/17 00:57:41;;;;;;;0.32;0.32;;;18.00;79.80;;;;;;4995911;28;20040;-64
2022/07/17 01:00:10;;;;;;;17.48;0.73;;;18.00;80.40;;;;;;4978405;28;20030;-64
2022/07/17 01:02:37;;;;;;;0.00;0.00;;;18.10;79.90;;;;;;4995685;28;20077;-64
2022/07/17 01:05:05;;;;;;;0.00;0.00;;;18.10;79.70;;;;;;4968215;28;20395;-64
2022/07/17 01:07:32;;;;;;;3.35;0.40;;;18.20;79.80;;;;;;4978359;28;20041;-64
2022/07/17 01:09:57;;;;;;;0.10;0.10;;;18.30;79.10;;;;;;4979683;28;20145;-65
2022/07/17 01:12:24;;;;;;;0.10;0.10;;;18.30;79.10;;;;;;4991961;28;20034;-65
2022/07/17 01:14:52;;;;;;;0.47;0.47;;;18.10;79.10;;;;;;4993782;28;20109;-65
2022/07/17 01:17:17;;;;;;;0.10;0.10;;;17.90;79.40;;;;;;4974885;28;20030;-65
2022/07/17 01:19:44;;;;;;;0.00;0.00;;;17.80;80.00;;;;;;4975514;28;20037;-65
2022/07/17 01:22:09;;;;;;;0.10;0.10;;;17.50;80.50;;;;;;4975650;28;20035;-65
2022/07/17 01:24:39;;;;;;;0.77;0.57;;;17.50;81.30;;;;;;4986984;28;20375;-64
2022/07/17 01:27:06;;;;;;;0.22;0.15;;;17.30;81.60;;;;;;4994292;28;20057;-64
2022/07/17 01:29:32;;;;;;;0.00;0.00;;;17.20;81.90;;;;;;4995223;28;20022;-64
2022/07/17 01:31:58;;;;;;;0.00;0.00;;;17.20;82.30;;;;;;4995173;28;20028;-64
2022/07/17 01:34:23;;;;;;;3.40;1.98;;;17.20;82.40;;;;;;4995234;28;20031;-65
2022/07/17 01:36:49;;;;;;;3.92;1.55;;;17.20;83.00;;;;;;4994944;28;20451;-65
2022/07/17 01:39:15;;;;;;;0.45;0.45;;;17.10;83.00;;;;;;4993281;28;20045;-65
2022/07/17 01:41:41;;;;;;;0.00;0.00;;;17.20;83.30;;;;;;4983465;28;20391;-65
2022/07/17 01:44:08;;;;;;;0.05;0.03;;;17.20;83.10;;;;;;4974138;28;20039;-65
2022/07/17 01:46:34;;;;;;;0.00;0.00;;;17.20;83.30;;;;;;4975523;28;20026;-64
2022/07/17 01:49:03;;;;;;;0.00;0.00;;;17.20;83.50;;;;;;4973647;28;20035;-65
2022/07/17 01:51:29;;;;;;;0.10;0.10;;;17.20;83.50;;;;;;4975376;28;20197;-66
2022/07/17 01:53:54;;;;;;;0.10;0.10;;;17.10;83.60;;;;;;4975022;28;20114;-65
2022/07/17 01:56:21;;;;;;;0.20;0.20;;;17.30;83.90;;;;;;4975480;28;20033;-65
2022/07/17 01:58:47;;;;;;;0.00;0.00;;;17.20;83.30;;;;;;4975008;28;20079;-65
2022/07/17 02:01:12;;;;;;;0.00;0.00;;;17.20;83.50;;;;;;4973493;28;20487;-65
2022/07/17 02:03:38;;;;;;;0.95;0.93;;;17.40;83.40;;;;;;4974902;28;20030;-65
2022/07/17 02:06:04;;;;;;;0.20;0.10;;;17.60;83.50;;;;;;4975314;28;20113;-64
2022/07/17 02:08:29;;;;;;;0.00;0.00;;;17.90;82.20;;;;;;4974854;28;20043;-65
2022/07/17 02:10:55;;;;;;;2.17;0.98;;;18.00;81.40;;;;;;4957540;28;20027;-65
2022/07/17 02:13:21;;;;;;;0.10;0.10;;;18.10;81.60;;;;;;4974774;28;20530;-65
2022/07/17 02:15:47;;;;;;;0.00;0.00;;;18.10;81.00;;;;;;4986277;28;20035;-65
2022/07/17 02:18:12;;;;;;;0.00;0.00;;;18.20;81.00;;;;;;4994578;28;20038;-65
2022/07/17 02:20:38;;;;;;;0.08;0.08;;;18.20;81.10;;;;;;4994046;28;20426;-65
2022/07/17 02:23:04;;;;;;;0.13;0.13;;;18.20;81.00;;;;;;4994014;28;20081;-65
2022/07/17 02:25:29;;;;;;;0.10;0.10;;;18.30;80.20;;;;;;4994259;28;20038;-65
2022/07/17 02:27:55;;;;;;;0.15;0.10;;;18.40;80.20;;;;;;4994007;28;20121;-65
2022/07/17 02:30:21;;;;;;;6.45;1.17;;;18.30;79.60;;;;;;4994158;28;20105;-65
2022/07/17 02:32:47;;;;;;;0.00;0.00;;;18.10;80.30;;;;;;4993874;28;20426;-65
2022/07/17 02:35:13;;;;;;;0.75;0.65;;;18.00;81.50;;;;;;4993864;28;20081;-65
2022/07/17 02:37:42;;;;;;;0.00;0.00;;;18.10;80.70;;;;;;4993693;28;20465;-65
2022/07/17 02:40:08;;;;;;;0.00;0.00;;;18.10;80.20;;;;;;4976736;28;20034;-65
2022/07/17 02:42:34;;;;;;;0.00;0.00;;;18.00;80.70;;;;;;4993536;28;20038;-65
2022/07/17 02:44:59;;;;;;;0.00;0.00;;;18.10;81.30;;;;;;4976635;28;20060;-65
2022/07/17 02:47:31;;;;;;;0.25;0.25;;;18.30;80.60;;;;;;4993728;28;20069;-65
2022/07/17 02:49:58;;;;;;;0.00;0.00;;;18.40;80.10;;;;;;4975911;28;20033;-65
2022/07/17 02:52:24;;;;;;;0.00;0.00;;;18.40;80.10;;;;;;4993628;28;20054;-65
2022/07/17 02:54:50;;;;;;;0.00;0.00;;;18.40;79.80;;;;;;4993657;28;20066;-65
2022/07/17 02:57:18;;;;;;;0.10;0.10;;;18.50;79.80;;;;;;4993619;28;20077;-65
2022/07/17 02:59:44;;;;;;;0.30;0.30;;;18.40;79.60;;;;;;4993354;28;20030;-65
2022/07/17 03:02:10;;;;;;;0.10;0.10;;;18.40;79.80;;;;;;4976021;28;20073;-65
2022/07/17 03:04:36;;;;;;;0.10;0.10;;;18.20;79.70;;;;;;4993286;28;20038;-65
2022/07/17 03:07:02;;;;;;;0.00;0.00;;;18.30;79.80;;;;;;4993590;28;20042;-65
2022/07/17 03:09:28;;;;;;;0.20;0.20;;;18.20;80.00;;;;;;4975682;28;20023;-65
2022/07/17 03:11:54;;;;;;;0.38;0.38;;;18.10;80.20;;;;;;4993512;28;20493;-65
2022/07/17 03:14:19;;;;;;;0.00;0.00;;;18.10;80.30;;;;;;4992159;28;20161;-65
2022/07/17 03:16:45;;;;;;;0.15;0.15;;;18.10;80.20;;;;;;4956821;28;20026;-65
2022/07/17 03:19:11;;;;;;;0.00;0.00;;;18.00;80.50;;;;;;4973578;28;20038;-65
2022/07/17 03:21:36;;;;;;;0.00;0.00;;;18.00;80.50;;;;;;4973466;28;20165;-65
2022/07/17 03:24:02;;;;;;;0.10;0.10;;;17.70;80.50;;;;;;4973392;28;20031;-65
2022/07/17 03:26:28;;;;;;;0.00;0.00;;;17.40;81.40;;;;;;4973550;28;20027;-65
2022/07/17 03:28:54;;;;;;;0.00;0.00;;;17.10;82.30;;;;;;4973244;28;20041;-65
2022/07/17 03:31:20;;;;;;;0.03;0.03;;;16.90;82.90;;;;;;4973609;28;20034;-65
2022/07/17 03:33:45;;;;;;;0.10;0.10;;;16.70;84.00;;;;;;4973152;28;20035;-65
2022/07/17 03:36:11;;;;;;;0.40;0.35;;;16.60;84.30;;;;;;4973373;28;20051;-64
2022/07/17 03:38:37;;;;;;;0.40;0.40;;;16.50;84.90;;;;;;4955753;28;20386;-65
2022/07/17 03:41:02;;;;;;;0.10;0.10;;;16.30;85.70;;;;;;4973623;28;20041;-65
2022/07/17 03:43:28;;;;;;;1.35;0.55;;;16.40;85.90;;;;;;4956131;28;20037;-65
2022/07/17 03:45:54;;;;;;;0.00;0.00;;;16.80;85.00;;;;;;4973310;28;20027;-65
2022/07/17 03:48:19;;;;;;;0.10;0.10;;;17.00;84.40;;;;;;4972985;28;20039;-65
2022/07/17 03:50:45;;;;;;;0.00;0.00;;;17.20;83.60;;;;;;4973059;28;20035;-65
2022/07/17 03:53:11;;;;;;;0.00;0.00;;;17.40;83.30;;;;;;4973279;28;20479;-65
2022/07/17 03:55:37;;;;;;;0.00;0.00;;;17.60;82.40;;;;;;4973080;28;20399;-65
2022/07/17 03:58:03;;;;;;;0.00;0.00;;;17.80;81.90;;;;;;4972982;28;20483;-65
2022/07/17 04:00:29;;;;;;;0.05;0.05;;;17.90;81.70;;;;;;4972858;28;20058;-65
2022/07/17 04:02:55;;;;;;;0.20;0.10;;;18.00;81.20;;;;;;4972731;28;20066;-65
2022/07/17 04:05:20;;;;;;;0.00;0.00;;;18.00;80.80;;;;;;4973031;28;20026;-65
2022/07/17 04:07:46;;;;;;;0.20;0.20;;;18.00;80.80;;;;;;4972822;28;20505;-65
2022/07/17 04:10:14;;;;;;;0.10;0.10;;;17.80;81.20;;;;;;4972655;28;20057;-65
2022/07/17 04:12:41;;;;;;;0.45;0.45;;;17.80;81.30;;;;;;4972714;28;20035;-65
2022/07/17 04:15:09;;;;;;;0.00;0.00;;;17.70;81.40;;;;;;4978636;28;20049;-65
2022/07/17 04:17:35;;;;;;;0.25;0.25;;;17.60;81.90;;;;;;4992075;28;20065;-65
2022/07/17 04:20:03;;;;;;;0.00;0.00;;;17.60;82.00;;;;;;4991750;28;20038;-65
2022/07/17 04:22:28;;;;;;;0.17;0.10;;;17.60;81.40;;;;;;4974796;28;20038;-65
2022/07/17 04:24:54;;;;;;;0.10;0.10;;;17.60;82.30;;;;;;4974468;28;20045;-65
2022/07/17 04:27:20;;;;;;;0.47;0.47;;;17.40;82.30;;;;;;4992211;28;20064;-65
2022/07/17 04:29:45;;;;;;;0.00;0.00;;;17.30;82.70;;;;;;4991763;28;20034;-65
2022/07/17 04:32:11;;;;;;;0.00;0.00;;;17.40;83.00;;;;;;4991720;28;20031;-65
2022/07/17 04:34:37;;;;;;;0.30;0.30;;;17.50;82.80;;;;;;4991927;28;20018;-65
2022/07/17 04:37:03;;;;;;;0.32;0.32;;;17.40;82.90;;;;;;4991970;28;20529;-65
2022/07/17 04:39:30;;;;;;;0.55;0.43;;;17.30;83.20;;;;;;4974129;28;20038;-65
2022/07/17 04:41:56;;;;;;;0.00;0.00;;;17.40;83.40;;;;;;4991861;28;20037;-65
2022/07/17 04:44:22;;;;;;;0.00;0.00;;;17.40;82.90;;;;;;4991852;28;20026;-65
2022/07/17 04:46:48;;;;;;;0.00;0.00;;;17.20;83.10;;;;;;4974188;28;20033;-65
2022/07/17 04:49:14;;;;;;;0.00;0.00;;;17.10;83.80;;;;;;4974141;28;20070;-65
2022/07/17 04:51:40;;;;;;;0.00;0.00;;;16.90;84.60;;;;;;4974512;28;20888;-65
2022/07/17 04:54:06;;;;;;;0.00;0.00;;;16.80;85.50;;;;;;4974353;28;20034;-65
2022/07/17 04:56:32;;;;;;;0.00;0.00;;;17.00;85.20;;;;;;4974669;28;20049;-65
2022/07/17 04:58:57;;;;;;;0.00;0.00;;;17.30;84.50;;;;;;4991555;28;20125;-65
2022/07/17 05:01:23;;;;;;;0.00;0.00;;;17.60;83.60;;;;;;4974143;28;20475;-65
2022/07/17 05:03:49;;;;;;;5.63;1.02;;;17.50;83.60;;;;;;4973613;28;20030;-65
2022/07/17 05:06:15;;;;;;;0.00;0.00;;;17.60;83.50;;;;;;4991513;28;20044;-65
2022/07/17 05:08:40;;;;;;;2.65;1.00;;;17.70;83.00;;;;;;4991404;28;20069;-65
2022/07/17 05:11:06;;;;;;;0.10;0.10;;;17.60;83.00;;;;;;4991617;28;20550;-65
2022/07/17 05:13:32;;;;;;;1.67;0.43;;;17.50;83.40;;;;;;4991468;28;20030;-65
2022/07/17 05:15:57;;;;;;;0.43;0.43;;;17.40;83.90;;;;;;4978623;28;20027;-65
2022/07/17 05:18:23;;;;;;;0.00;0.00;;;17.30;84.30;;;;;;4972367;28;20073;-65
2022/07/17 05:20:49;;;;;;;0.10;0.05;;;17.20;84.80;;;;;;4972273;28;20030;-65
2022/07/17 05:23:14;;;;;;;0.25;0.25;;;17.30;85.00;;;;;;4971726;28;20253;-65
2022/07/17 05:25:40;;;;;;;0.00;0.00;;;17.60;84.30;;;;;;4972038;28;20487;-65
2022/07/17 05:28:06;;;;;;;0.22;0.22;;;17.70;83.90;;;;;;4972006;28;20051;-65
2022/07/17 05:30:32;;;;;;;0.00;0.00;;;17.80;83.50;;;;;;4971765;28;20031;-65
2022/07/17 05:32:57;;;;;;;0.15;0.15;;;17.90;83.50;;;;;;4972091;28;20031;-65
2022/07/17 05:35:23;;;;;;;0.30;0.20;;;18.00;83.20;;;;;;4971880;28;20097;-65
2022/07/17 05:37:49;;;;;;;0.00;0.00;;;18.20;82.30;;;;;;4956983;28;20035;-64
2022/07/17 05:40:15;;;;;;;0.00;0.00;;;18.30;82.10;;;;;;4973776;28;20108;-64
2022/07/17 05:42:40;;;;;;;0.00;0.00;;;18.30;82.00;;;;;;4975476;28;20045;-64
2022/07/17 05:45:07;;;;;;;0.10;0.10;;;18.40;81.50;;;;;;4975101;28;20483;-64
2022/07/17 05:47:33;;;;;;;0.43;0.22;;;18.60;81.00;;;;;;4975571;28;20073;-64
2022/07/17 05:49:58;;;;;;;0.00;0.00;;;18.80;80.50;;;;;;4973823;28;20420;-64
2022/07/17 05:52:24;;;;;;;0.00;0.00;;;18.70;80.70;;;;;;4975126;28;20399;-65
2022/07/17 05:54:50;;;;;;;0.00;0.00;;;18.70;80.30;;;;;;4958119;28;20118;-62
2022/07/17 05:57:16;;;;;;;0.00;0.00;;;18.70;80.50;;;;;;4975262;28;20109;-68
2022/07/17 05:59:42;;;;;;;0.17;0.17;;;18.80;80.20;;;;;;4970254;28;20133;-68
2022/07/17 06:02:07;;;;;;;0.00;0.00;;;18.80;80.20;;;;;;4981574;28;20026;-68
2022/07/17 06:04:33;;;;;;;0.00;0.00;;;18.60;80.60;;;;;;4982593;28;20022;-67
2022/07/17 06:06:59;;;;;;;0.00;0.00;;;18.70;80.70;;;;;;4957061;28;20035;-68
2022/07/17 06:09:25;;;;;;;0.10;0.10;;;18.80;80.40;;;;;;4970961;28;20054;-69
2022/07/17 06:11:51;;;;;;;0.08;0.08;;;19.00;80.60;;;;;;4973389;28;20058;-69
2022/07/17 06:14:17;;;;;;;0.10;0.10;;;18.90;80.20;;;;;;4957061;28;20031;-69
2022/07/17 06:16:43;;;;;;;1.58;0.63;;;19.10;80.20;;;;;;4975000;28;20038;-68
2022/07/17 06:19:08;;;;;;;0.00;0.00;;;19.20;79.80;;;;;;4974574;28;20064;-68
2022/07/17 06:21:34;;;;;;;0.00;0.00;;;19.30;79.40;;;;;;4974565;28;20462;-68
2022/07/17 06:24:00;;;;;;;0.15;0.15;;;19.50;79.00;;;;;;4974417;28;20038;-69
2022/07/17 06:26:26;;;;;;;0.17;0.17;;;19.60;78.80;;;;;;4974308;28;20566;-69
2022/07/17 06:28:51;;;;;;;0.00;0.00;;;19.70;78.50;;;;;;4974013;28;20038;-70
2022/07/17 06:31:17;;;;;;;0.00;0.00;;;19.70;77.80;;;;;;4957205;28;20387;-69
2022/07/17 06:33:43;;;;;;;0.00;0.00;;;19.80;77.70;;;;;;4974217;28;20022;-69
2022/07/17 06:36:09;;;;;;;0.00;0.00;;;20.10;77.10;;;;;;4957032;28;20390;-70
2022/07/17 06:38:35;;;;;;;1.13;1.00;;;20.40;76.10;;;;;;4956554;28;20542;-71
2022/07/17 06:41:02;;;;;;;0.00;0.00;;;20.50;76.60;;;;;;4956893;28;20031;-69
2022/07/17 06:43:28;;;;;;;0.47;0.43;;;20.60;76.00;;;;;;4973875;28;20034;-72
2022/07/17 06:45:54;;;;;;;0.00;0.00;;;20.80;74.90;;;;;;4956961;28;20042;-74
2022/07/17 06:48:21;;;;;;;0.20;0.10;;;20.90;74.70;;;;;;4973769;28;20559;-74
2022/07/17 06:50:47;;;;;;;0.03;0.03;;;20.90;74.30;;;;;;4973696;28;20398;-73
2022/07/17 06:53:14;;;;;;;0.00;0.00;;;21.00;73.90;;;;;;4973539;28;20410;-71
2022/07/17 06:55:40;;;;;;;0.00;0.00;;;21.00;74.20;;;;;;4973802;28;20859;-71
2022/07/17 06:58:06;;;;;;;0.00;0.00;;;21.00;73.70;;;;;;4956638;28;20046;-71
2022/07/17 07:00:32;;;;;;;2.55;0.70;;;20.90;73.70;;;;;;4973225;28;20034;-72
2022/07/17 07:02:57;;;;;;;0.10;0.10;;;21.00;73.60;;;;;;4956243;28;20081;-71
2022/07/17 07:05:23;;;;;;;0.00;0.00;;;21.20;72.50;;;;;;4973649;28;20077;-71
2022/07/17 07:07:49;;;;;;;0.10;0.10;;;21.30;72.60;;;;;;4973919;28;20031;-71
2022/07/17 07:10:15;;;;;;;0.00;0.00;;;21.30;72.20;;;;;;4973673;28;20039;-70
2022/07/17 07:12:41;;;;;;;0.35;0.28;;;21.60;71.40;;;;;;4973317;28;20058;-70
2022/07/17 07:15:07;;;;;;;0.00;0.00;;;21.80;70.70;;;;;;4956307;28;20121;-70
2022/07/17 07:17:37;;;;;;;0.10;0.10;;;21.90;70.80;;;;;;4956155;28;20483;-71
2022/07/17 07:20:04;;;;;;;0.00;0.00;;;22.00;70.20;;;;;;4973366;28;20073;-70
2022/07/17 07:22:31;;;;;;;0.35;0.15;;;22.10;69.70;;;;;;4973150;28;20058;-71
2022/07/17 07:24:57;;;;;;;0.00;0.00;;;22.20;69.70;;;;;;4956189;28;20475;-73
2022/07/17 07:27:23;;;;;;;0.00;0.00;;;22.20;69.00;;;;;;4973473;28;20035;-73
2022/07/17 07:29:49;;;;;;;0.00;0.00;;;22.40;69.50;;;;;;4964300;28;20501;-73
2022/07/17 07:32:15;;;;;;;0.47;0.47;;;22.20;69.50;;;;;;4992483;28;20034;-73
2022/07/17 07:34:41;;;;;;;0.10;0.10;;;22.10;69.10;;;;;;4991450;28;20033;-73
2022/07/17 07:37:07;;;;;;;0.00;0.00;;;22.10;69.20;;;;;;4992727;28;20026;-74
2022/07/17 07:39:33;;;;;;;1.00;0.93;;;22.00;69.10;;;;;;4992642;28;20027;-71
2022/07/17 07:41:59;;;;;;;0.47;0.45;;;22.00;70.00;;;;;;4974954;28;20022;-68
2022/07/17 07:44:26;;;;;;;0.25;0.20;;;22.00;69.40;;;;;;4992338;28;20034;-71
2022/07/17 07:46:52;;;;;;;0.05;0.05;;;22.00;70.40;;;;;;4991111;28;20038;-69
2022/07/17 07:49:17;;;;;;;0.00;0.00;;;22.10;70.10;;;;;;4991021;28;20030;-73
2022/07/17 07:51:43;;;;;;;0.00;0.00;;;22.10;69.90;;;;;;4992409;28;20027;-70
2022/07/17 07:54:09;;;;;;;0.00;0.00;;;22.10;69.30;;;;;;4992157;28;20479;-70
2022/07/17 07:56:36;;;;;;;0.00;0.00;;;22.10;69.30;;;;;;4992538;28;20203;-71
2022/07/17 07:59:03;;;;;;;3.83;0.80;;;22.10;70.00;;;;;;4974711;28;20027;-73
2022/07/17 08:01:29;;;;;;;0.00;0.00;;;22.30;69.60;;;;;;4992034;28;20026;-69
2022/07/17 08:03:55;;;;;;;0.00;0.00;;;22.50;69.10;;;;;;4992142;28;20034;-69
2022/07/17 08:06:21;;;;;;;0.10;0.10;;;22.50;68.60;;;;;;4973610;28;20034;-68
2022/07/17 08:08:47;;;;;;;0.10;0.10;;;22.50;68.20;;;;;;4955965;28;20110;-69
2022/07/17 08:11:13;;;;;;;0.00;0.00;;;22.50;68.90;;;;;;4952293;29;20032;-68
2022/07/17 08:13:40;;;;;;;25.23;1.17;;;22.60;68.70;;;;;;4953099;29;20502;-68
2022/07/17 08:16:06;;;;;;;0.00;0.00;;;22.70;68.40;;;;;;4953508;28;20031;-70
2022/07/17 08:18:32;;;;;;;2.08;0.20;;;22.80;68.50;;;;;;4952495;29;20070;-69
2022/07/17 08:20:58;;;;;;;0.10;0.10;;;22.90;68.40;;;;;;4953497;29;20090;-71
2022/07/17 08:23:24;;;;;;;0.10;0.03;;;23.00;68.00;;;;;;4951925;28;20031;-73
2022/07/17 08:25:50;;;;;;;0.00;0.00;;;23.20;68.40;;;;;;4953222;29;20387;-70
2022/07/17 08:28:15;;;;;;;0.22;0.22;;;23.40;67.90;;;;;;4953060;29;20110;-73
2022/07/17 08:30:41;;;;;;;0.00;0.00;;;23.50;67.30;;;;;;4970418;28;20030;-69
2022/07/17 08:33:09;;;;;;;0.00;0.00;;;23.60;67.00;;;;;;4974110;28;20050;-69
2022/07/17 08:35:36;;;;;;;1.45;0.35;;;23.70;66.70;;;;;;4958690;28;20046;-68
2022/07/17 08:38:03;;;;;;;0.00;0.00;;;23.80;66.10;;;;;;4973956;28;20410;-68
2022/07/17 08:40:34;;;;;;;0.00;0.00;;;23.80;66.40;;;;;;4991412;28;20034;-70
2022/07/17 08:43:00;;;;;;;;;;;23.90;66.10;;;;;;4992314;28;20590;-69
2022/07/17 08:45:26;;;;;;;0.00;0.00;;;24.00;65.40;;;;;;4991791;28;20020;-69
2022/07/17 08:47:54;;;;;;;3.63;0.30;;;24.00;65.00;;;;;;4974190;28;20062;-69
2022/07/17 08:50:30;;;;;;;0.10;0.00;;;24.10;65.20;;;;;;4991308;28;20030;-69
2022/07/17 08:52:57;;;;;;;0.25;0.10;;;24.20;62.90;;;;;;4991763;28;20037;-73
2022/07/17 08:55:23;;;;;;;0.00;0.00;;;24.40;64.00;;;;;;4974420;28;20042;-70
2022/07/17 08:57:48;;;;;;;0.70;0.30;;;24.40;63.90;;;;;;4991514;28;20491;-69
2022/07/17 09:00:18;;;;;;;0.00;0.00;;;24.30;64.20;;;;;;4973833;28;20038;-70
2022/07/17 09:03:04;;;;;;;0.00;0.00;;;24.30;64.60;;;;;;4991511;28;20061;-69
2022/07/17 09:05:36;;;;;;;0.00;0.00;;;24.50;63.80;;;;;;4975412;28;20034;-69
2022/07/17 09:08:03;;;;;;;0.00;0.00;;;24.50;63.30;;;;;;4991332;28;20399;-70
2022/07/17 09:10:39;;;;;;;0.00;0.00;;;24.50;63.00;;;;;;4991564;28;20639;-70
2022/07/17 09:13:29;;;;;;;0.00;0.00;;;24.70;62.90;;;;;;4976994;28;20034;-70
2022/07/17 09:16:13;;;;;;;0.00;0.00;;;24.70;62.20;;;;;;4995658;28;20038;-69
2022/07/17 09:18:57;;;;;;;0.32;0.28;;;24.80;62.40;;;;;;4977986;28;20023;-72
2022/07/17 09:21:26;;;;;;;0.00;0.00;;;24.90;61.60;;;;;;4962239;28;20027;-72
2022/07/17 09:24:06;;;;;;;0.57;0.08;;;24.90;63.10;;;;;;4995169;28;20070;-72
2022/07/17 09:26:44;;;;;;;4.35;0.47;;;24.90;62.60;;;;;;4978074;28;20033;-71
2022/07/17 09:29:12;;;;;;;0.00;0.00;;;24.90;62.00;;;;;;4977661;28;20494;-71
2022/07/17 09:31:38;;;;;;;0.00;0.00;;;25.10;61.50;;;;;;4995131;28;20022;-72
2022/07/17 09:34:05;;;;;;;0.10;0.05;;;25.00;61.40;;;;;;4977736;28;20508;-71
2022/07/17 09:36:30;;;;;;;0.10;0.10;;;25.00;61.30;;;;;;4977450;28;20038;-71
2022/07/17 09:38:58;;;;;;;1.08;0.80;;;25.10;61.70;;;;;;4994383;28;20406;-72
2022/07/17 09:41:26;;;;;;;0.40;0.30;;;25.20;61.90;;;;;;4977298;28;20121;-71
2022/07/17 09:43:54;;;;;;;0.30;0.30;;;25.30;61.60;;;;;;4977667;28;20045;-71
2022/07/17 09:46:31;;;;;;;0.10;0.10;;;25.40;61.20;;;;;;4995039;28;20077;-70
2022/07/17 09:49:03;;;;;;;0.00;0.00;;;25.50;61.50;;;;;;4994761;28;20038;-70
2022/07/17 09:51:37;;;;;;;0.00;0.00;;;25.50;61.30;;;;;;4995295;28;20074;-71
2022/07/17 09:54:05;;;;;;;3.53;0.45;;;25.50;60.10;;;;;;4994110;28;20367;-71
2022/07/17 09:56:34;;;;;;;0.10;0.10;;;25.60;60.60;;;;;;4991624;28;20042;-71
2022/07/17 09:59:04;;;;;;;0.00;0.00;;;25.60;59.90;;;;;;4975621;28;20039;-70
2022/07/17 10:01:31;;;;;;;0.03;0.03;;;25.60;59.90;;;;;;4976416;28;20050;-69
2022/07/17 10:03:57;;;;;;;0.10;0.10;;;25.60;59.00;;;;;;4991553;28;20026;-71
2022/07/17 10:06:25;;;;;;;0.00;0.00;;;25.70;59.70;;;;;;4976992;28;20026;-70
2022/07/17 10:08:53;;;;;;;0.45;0.32;;;25.80;59.30;;;;;;4947611;28;20507;-71
2022/07/17 10:11:22;;;;;;;0.00;0.00;;;25.80;59.70;;;;;;4973163;28;20027;-71
2022/07/17 10:13:53;;;;;;;0.00;0.00;;;25.90;59.20;;;;;;4974575;28;20065;-71
2022/07/17 10:16:29;;;;;;;0.00;0.00;;;26.00;59.70;;;;;;4974724;28;20035;-70
2022/07/17 10:18:57;;;;;;;0.00;0.00;;;26.30;59.60;;;;;;4957288;28;20122;-71
2022/07/17 10:21:25;;;;;;;0.00;0.00;;;26.30;59.50;;;;;;4957788;28;20026;-71
2022/07/17 10:23:53;;;;;;;0.00;0.00;;;26.40;58.80;;;;;;4957106;28;20035;-71
2022/07/17 10:26:33;;;;;;;0.00;0.00;;;26.50;59.00;;;;;;4974725;28;20037;-71
2022/07/17 10:28:59;;;;;;;0.00;0.00;;;26.80;60.10;;;;;;4975964;28;20042;-71
2022/07/17 10:31:28;;;;;;;0.45;0.28;;;26.90;58.50;;;;;;4976439;28;20084;-70
2022/07/17 10:34:05;;;;;;;0.00;0.00;;;27.20;57.70;;;;;;4993720;28;20038;-70
2022/07/17 10:36:43;;;;;;;0.10;0.03;;;27.30;57.70;;;;;;4960779;28;20034;-71
2022/07/17 10:39:17;;;;;;;0.00;0.00;;;27.40;57.70;;;;;;4984221;28;20031;-70
2022/07/17 10:41:58;;;;;;;0.00;0.00;;;27.10;56.60;;;;;;4953150;28;20032;-68
2022/07/17 10:44:26;;;;;;;0.00;0.00;;;27.30;55.60;;;;;;4954108;29;20082;-69
2022/07/17 10:46:53;;;;;;;0.00;0.00;;;27.10;55.10;;;;;;4955243;29;20130;-70
2022/07/17 10:49:19;;;;;;;0.85;0.30;;;27.30;55.40;;;;;;4953291;28;20036;-70
2022/07/17 10:51:46;;;;;;;0.00;0.00;;;26.90;55.10;;;;;;4955093;29;20031;-69
2022/07/17 10:54:12;;;;;;;0.00;0.00;;;27.20;56.20;;;;;;4954736;28;20026;-69
2022/07/17 10:56:41;;;;;;;0.47;0.47;;;27.30;56.60;;;;;;4954571;28;20118;-69
2022/07/17 10:59:07;;;;;;;0.85;0.38;;;27.60;56.10;;;;;;4960274;28;20516;-70
2022/07/17 11:01:33;;;;;;;0.17;0.00;;;27.70;57.00;;;;;;4993757;28;20057;-69
2022/07/17 11:04:01;;;;;;;0.00;0.00;;;27.80;56.80;;;;;;4993065;28;20124;-69
2022/07/17 11:06:45;;;;;;;0.60;0.38;;;28.00;55.60;;;;;;4976356;28;20041;-69
2022/07/17 11:09:12;;;;;;;0.20;0.13;;;28.00;55.10;;;;;;4992885;28;20517;-69
2022/07/17 11:11:48;;;;;;;1.02;1.02;;;28.20;55.00;;;;;;4993499;28;20030;-72
2022/07/17 11:14:25;;;;;;;0.00;0.00;;;28.40;54.60;;;;;;4993036;28;20030;-70
2022/07/17 11:16:57;;;;;;;0.00;0.00;;;28.50;54.60;;;;;;4976105;28;20026;-68
2022/07/17 11:19:43;;;;;;;0.30;0.30;;;28.60;53.80;;;;;;4993026;28;20034;-70
2022/07/17 11:22:11;;;;;;;0.10;0.10;;;28.50;53.40;;;;;;4977071;28;20684;-71
2022/07/17 11:24:42;;;;;;;0.08;0.08;;;28.20;53.90;;;;;;4992980;28;20049;-68
2022/07/17 11:27:26;;;;;;;0.00;0.00;;;28.40;54.20;;;;;;4992707;28;20041;-68
2022/07/17 11:29:54;;;;;;;0.08;0.08;;;28.70;53.60;;;;;;4968819;28;20042;-68
2022/07/17 11:32:22;;;;;;;0.90;0.55;;;28.80;53.00;;;;;;4973519;28;20038;-68
2022/07/17 11:34:48;;;;;;;0.00;0.00;;;28.70;53.40;;;;;;4955779;28;20022;-69
2022/07/17 11:37:14;;;;;;;0.10;0.00;;;29.00;54.10;;;;;;4961560;28;20049;-69
2022/07/17 11:39:49;;;;;;;0.13;0.00;;;29.00;53.10;;;;;;4972535;28;20547;-73
2022/07/17 11:42:21;;;;;;;0.00;0.00;;;29.00;53.60;;;;;;4955990;28;20387;-74
2022/07/17 11:44:51;;;;;;;25.23;0.57;;;29.20;53.80;;;;;;4972667;28;20023;-73
2022/07/17 11:47:28;;;;;;;0.00;0.00;;;29.30;53.80;;;;;;4972096;28;20034;-76
2022/07/17 11:50:13;;;;;;;0.00;0.00;;;29.40;54.40;;;;;;4971930;28;20034;-72
2022/07/17 11:52:50;;;;;;;0.10;0.10;;;29.40;54.60;;;;;;4971742;28;20062;-73
2022/07/17 11:55:16;;;;;;;0.50;0.40;;;29.30;54.20;;;;;;4972216;28;20039;-73
2022/07/17 11:57:50;;;;;;;0.00;0.00;;;29.00;54.20;;;;;;4966969;28;20034;-75
2022/07/17 12:00:19;;;;;;;0.00;0.00;;;29.10;53.90;;;;;;4955891;28;20057;-75
2022/07/17 12:02:46;;;;;;;0.20;0.20;;;29.10;54.20;;;;;;4972441;28;20085;-76
2022/07/17 12:05:13;;;;;;;0.00;0.00;;;29.10;54.10;;;;;;4980551;28;20081;-73
2022/07/17 12:07:47;;;;;;;0.10;0.10;;;29.30;54.00;;;;;;4970053;28;20038;-75
2022/07/17 12:10:20;;;;;;;0.22;0.22;;;29.00;54.10;;;;;;4991073;28;20081;-75
2022/07/17 12:13:06;;;;;;;0.10;0.10;;;28.60;54.20;;;;;;4972404;28;20026;-74
2022/07/17 12:15:46;;;;;;;0.10;0.05;;;29.00;55.00;;;;;;4955250;28;20058;-72
2022/07/17 12:18:28;;;;;;;0.35;0.35;;;29.40;53.50;;;;;;4955308;28;20023;-72
2022/07/17 12:20:57;;;;;;;0.40;0.30;;;29.70;52.80;;;;;;4989858;28;20030;-72
2022/07/17 12:23:38;;;;;;;0.20;0.20;;;29.90;53.20;;;;;;4991810;28;20038;-72
2022/07/17 12:26:14;;;;;;;0.00;0.00;;;30.40;52.50;;;;;;4992159;28;20058;-73
2022/07/17 12:28:40;;;;;;;0.00;0.00;;;30.60;51.40;;;;;;4990140;28;20104;-73
2022/07/17 12:31:11;;;;;;;0.03;0.03;;;30.60;50.70;;;;;;4955745;28;20479;-72
2022/07/17 12:33:38;;;;;;;0.00;0.00;;;30.40;49.60;;;;;;4971877;28;20495;-72
2022/07/17 12:36:04;;;;;;;0.00;0.00;;;30.60;50.70;;;;;;4977870;28;20390;-72
2022/07/17 12:38:29;;;;;;;0.30;0.10;;;30.90;51.40;;;;;;4991559;28;20030;-68
2022/07/17 12:40:55;;;;;;;0.20;0.20;;;31.00;52.60;;;;;;4991687;28;20042;-68
2022/07/17 12:43:21;;;;;;;0.00;0.00;;;30.90;51.70;;;;;;4989673;28;20038;-68
2022/07/17 12:45:47;;;;;;;0.08;0.08;;;30.90;50.90;;;;;;4991777;28;20031;-68
2022/07/17 12:48:13;;;;;;;0.03;0.03;;;30.60;51.70;;;;;;4975641;28;20510;-70
2022/07/17 12:50:39;;;;;;;0.10;0.10;;;30.80;51.30;;;;;;4951599;28;20024;-68